createdAt,value
2022-08-17T00:00:43.702Z,3.10
2022-08-17T00:03:13.666Z,3.00
2022-08-17T00:05:45.014Z,3.25
2022-08-17T00:08:14.732Z,3.40
2022-08-17T00:10:45.409Z,3.50
2022-08-17T00:13:17.428Z,3.42
2022-08-17T00:15:48.195Z,3.10
2022-08-17T00:19:07.008Z,3.25
2022-08-17T00:21:10.384Z,3.28
2022-08-17T00:23:46.234Z,3.83
2022-08-17T00:26:44.544Z,3.20
2022-08-17T00:29:07.772Z,3.40
2022-08-17T00:31:37.809Z,3.00
2022-08-17T00:34:09.087Z,3.50
2022-08-17T00:36:37.208Z,3.30
2022-08-17T00:39:06.313Z,3.22
2022-08-17T00:41:36.048Z,3.83
2022-08-17T00:44:12.146Z,2.97
2022-08-17T00:46:44.186Z,3.45
2022-08-17T00:49:13.604Z,3.55
2022-08-17T00:51:45.656Z,3.60
2022-08-17T00:54:21.385Z,3.88
2022-08-17T00:56:54.459Z,3.85
2022-08-17T00:59:27.193Z,3.70
2022-08-17T01:01:56.507Z,3.65
2022-08-17T01:04:26.392Z,3.90
2022-08-17T01:06:55.738Z,3.72
2022-08-17T01:09:24.052Z,3.58
2022-08-17T01:11:52.934Z,4.05
2022-08-17T01:14:22.471Z,3.30
2022-08-17T01:16:52.438Z,3.63
2022-08-17T01:19:24.658Z,3.72
2022-08-17T01:21:59.038Z,3.60
2022-08-17T01:24:29.757Z,3.53
2022-08-17T01:26:58.028Z,3.60
2022-08-17T01:29:26.702Z,3.33
2022-08-17T01:31:58.730Z,3.92
2022-08-17T01:34:28.245Z,3.47
2022-08-17T01:37:11.393Z,3.75
2022-08-17T01:39:45.693Z,3.30
2022-08-17T01:42:19.175Z,3.95
2022-08-17T01:44:47.508Z,3.67
2022-08-17T01:47:15.685Z,3.75
2022-08-17T01:49:44.478Z,3.22
2022-08-17T01:52:12.961Z,3.38
2022-08-17T01:54:47.268Z,3.53
2022-08-17T01:57:15.814Z,3.95
2022-08-17T01:59:44.846Z,3.80
2022-08-17T02:04:59.675Z,3.38
2022-08-17T02:07:28.169Z,3.42
2022-08-17T02:09:57.511Z,3.33
2022-08-17T02:12:39.535Z,4.05
2022-08-17T02:15:12.365Z,3.30
2022-08-17T02:17:41.510Z,3.28
2022-08-17T02:20:11.810Z,3.97
2022-08-17T02:22:42.269Z,3.78
2022-08-17T02:25:16.176Z,4.10
2022-08-17T02:27:45.281Z,4.00
2022-08-17T02:30:59.953Z,3.50
2022-08-17T02:33:06.401Z,3.65
2022-08-17T02:35:37.657Z,3.95
2022-08-17T02:38:07.435Z,3.70
2022-08-17T02:40:39.016Z,3.42
2022-08-17T02:43:08.385Z,3.90
2022-08-17T02:45:37.493Z,5.20
2022-08-17T02:48:06.125Z,4.47
2022-08-17T02:50:34.395Z,3.58
2022-08-17T02:53:02.950Z,3.40
2022-08-17T02:55:34.742Z,3.67
2022-08-17T02:58:04.833Z,3.63
2022-08-17T03:00:35.858Z,3.63
2022-08-17T03:03:06.824Z,3.78
2022-08-17T03:05:36.701Z,4.05
2022-08-17T03:08:07.819Z,3.83
2022-08-17T03:10:42.760Z,3.45
2022-08-17T03:13:14.340Z,4.00
2022-08-17T03:15:45.492Z,3.70
2022-08-17T03:18:24.557Z,3.30
2022-08-17T03:20:55.232Z,3.55
2022-08-17T03:23:23.969Z,3.72
2022-08-17T03:25:54.081Z,3.50
2022-08-17T03:28:24.845Z,3.72
2022-08-17T03:30:53.280Z,3.70
2022-08-17T03:33:21.725Z,4.28
2022-08-17T03:35:49.738Z,4.40
2022-08-17T03:38:18.911Z,3.72
2022-08-17T03:40:56.361Z,4.20
2022-08-17T03:43:32.178Z,3.20
2022-08-17T03:46:27.121Z,3.80
2022-08-17T03:49:14.901Z,3.78
2022-08-17T03:52:00.611Z,3.80
2022-08-17T03:54:46.608Z,3.20
2022-08-17T03:57:15.127Z,3.35
2022-08-17T03:59:45.367Z,4.25
2022-08-17T04:02:19.007Z,3.67
2022-08-17T04:04:50.585Z,3.53
2022-08-17T04:07:19.055Z,3.22
2022-08-17T04:09:47.641Z,3.10
2022-08-17T04:12:16.515Z,3.60
2022-08-17T04:14:52.874Z,3.67
2022-08-17T04:17:24.364Z,3.85
2022-08-17T04:19:53.640Z,4.10
2022-08-17T04:22:31.262Z,3.80
2022-08-17T04:25:04.950Z,3.50
2022-08-17T04:27:33.284Z,3.72
2022-08-17T04:30:02.955Z,3.33
2022-08-17T04:33:04.018Z,3.92
2022-08-17T04:35:22.142Z,3.97
2022-08-17T04:37:51.285Z,3.67
2022-08-17T04:40:37.387Z,4.15
2022-08-17T04:43:07.676Z,3.42
2022-08-17T04:45:40.319Z,3.55
2022-08-17T04:48:23.582Z,3.47
2022-08-17T04:51:00.868Z,3.78
2022-08-17T04:53:29.899Z,4.55
2022-08-17T04:55:59.235Z,3.83
2022-08-17T04:58:27.832Z,3.70
2022-08-17T05:00:57.345Z,4.18
2022-08-17T05:03:25.740Z,4.45
2022-08-17T05:05:54.132Z,3.90
2022-08-17T05:08:22.577Z,4.10
2022-08-17T05:10:51.213Z,4.15
2022-08-17T05:13:21.600Z,3.70
2022-08-17T05:15:54.745Z,3.63
2022-08-17T05:18:24.698Z,3.80
2022-08-17T05:20:53.995Z,3.80
2022-08-17T05:23:24.800Z,3.42
2022-08-17T05:25:55.986Z,3.80
2022-08-17T05:28:28.170Z,3.05
2022-08-17T05:31:00.548Z,3.72
2022-08-17T05:33:33.043Z,3.92
2022-08-17T05:36:03.569Z,3.25
2022-08-17T05:38:33.331Z,3.70
2022-08-17T05:41:04.070Z,4.18
2022-08-17T05:43:35.219Z,3.55
2022-08-17T05:46:07.680Z,3.53
2022-08-17T05:48:41.392Z,4.13
2022-08-17T05:51:33.752Z,3.33
2022-08-17T05:54:16.802Z,3.60
2022-08-17T05:57:00.432Z,3.30
2022-08-17T05:59:36.088Z,3.22
2022-08-17T06:02:14.778Z,3.78
2022-08-17T06:04:53.602Z,3.40
2022-08-17T06:07:26.696Z,3.67
2022-08-17T06:10:04.558Z,3.80
2022-08-17T06:12:48.788Z,4.10
2022-08-17T06:15:28.605Z,3.72
2022-08-17T06:17:59.451Z,3.63
2022-08-17T06:20:36.648Z,3.60
2022-08-17T06:23:10.249Z,3.65
2022-08-17T06:25:45.716Z,3.47
2022-08-17T06:28:18.006Z,3.70
2022-08-17T06:31:00.757Z,3.53
2022-08-17T06:33:35.576Z,3.72
2022-08-17T06:36:18.109Z,3.90
2022-08-17T06:38:58.831Z,4.18
2022-08-17T06:41:37.809Z,3.40
2022-08-17T06:44:43.186Z,3.70
2022-08-17T06:47:08.932Z,3.90
2022-08-17T06:49:50.714Z,3.75
2022-08-17T06:52:45.858Z,3.50
2022-08-17T06:55:21.243Z,3.67
2022-08-17T06:57:53.791Z,3.33
2022-08-17T07:00:25.463Z,3.65
2022-08-17T07:02:58.481Z,3.35
2022-08-17T07:05:31.813Z,3.60
2022-08-17T07:08:06.053Z,3.10
2022-08-17T07:10:43.911Z,3.40
2022-08-17T07:13:29.279Z,3.45
2022-08-17T07:16:12.908Z,3.50
2022-08-17T07:18:40.840Z,3.40
2022-08-17T07:21:20.724Z,3.38
2022-08-17T07:24:04.304Z,3.20
2022-08-17T07:26:32.843Z,3.88
2022-08-17T07:29:02.939Z,3.70
2022-08-17T07:31:33.818Z,3.30
2022-08-17T07:34:07.918Z,3.40
2022-08-17T07:36:35.933Z,3.80
2022-08-17T07:39:06.549Z,4.10
2022-08-17T07:41:53.310Z,3.60
2022-08-17T07:44:27.946Z,3.60
2022-08-17T07:47:14.271Z,3.63
2022-08-17T07:49:45.469Z,3.40
2022-08-17T07:52:51.800Z,3.53
2022-08-17T07:55:28.125Z,3.25
2022-08-17T07:57:57.365Z,3.70
2022-08-17T08:00:31.536Z,3.50
2022-08-17T08:03:15.878Z,3.38
2022-08-17T08:05:56.672Z,3.47
2022-08-17T08:08:31.472Z,3.38
2022-08-17T08:11:06.293Z,3.20
2022-08-17T08:13:36.301Z,3.38
2022-08-17T08:16:25.408Z,3.10
2022-08-17T08:18:58.124Z,3.50
2022-08-17T08:21:37.275Z,4.20
2022-08-17T08:24:22.864Z,3.30
2022-08-17T08:26:59.431Z,3.53
2022-08-17T08:29:37.930Z,3.88
2022-08-17T08:32:16.440Z,4.05
2022-08-17T08:35:01.386Z,3.97
2022-08-17T08:37:44.839Z,3.85
2022-08-17T08:40:32.539Z,4.05
2022-08-17T08:43:13.458Z,4.00
2022-08-17T08:45:56.721Z,3.90
2022-08-17T08:48:56.281Z,3.95
2022-08-17T08:51:35.869Z,4.05
2022-08-17T08:54:11.849Z,4.63
2022-08-17T08:57:11.946Z,4.50
2022-08-17T08:59:41.788Z,4.13
2022-08-17T09:02:23.644Z,3.95
2022-08-17T09:05:14.246Z,3.45
2022-08-17T09:07:54.697Z,3.53
2022-08-17T09:10:29.341Z,3.85
2022-08-17T09:13:10.223Z,3.55
2022-08-17T09:15:46.065Z,3.90
2022-08-17T09:18:59.844Z,3.60
2022-08-17T09:21:18.587Z,3.60
2022-08-17T09:23:59.718Z,3.50
2022-08-17T09:26:35.932Z,3.67
2022-08-17T09:29:09.953Z,3.53
2022-08-17T09:31:49.425Z,4.10
2022-08-17T09:34:28.170Z,3.75
2022-08-17T09:37:12.532Z,4.45
2022-08-17T09:39:46.510Z,3.92
2022-08-17T09:42:28.044Z,3.73
2022-08-17T09:45:07.633Z,3.38
2022-08-17T09:47:46.447Z,3.08
2022-08-17T09:50:55.574Z,3.55
2022-08-17T09:53:10.372Z,3.50
2022-08-17T09:55:51.103Z,2.90
2022-08-17T09:58:30.469Z,2.97
2022-08-17T10:01:06.145Z,3.08
2022-08-17T10:03:50.757Z,3.33
2022-08-17T10:06:25.236Z,3.35
2022-08-17T10:09:06.536Z,3.30
2022-08-17T10:11:57.646Z,3.83
2022-08-17T10:14:38.085Z,3.47
2022-08-17T10:17:18.909Z,4.00
2022-08-17T10:19:56.381Z,3.95
2022-08-17T10:22:52.679Z,4.10
2022-08-17T10:25:56.743Z,4.15
2022-08-17T10:28:55.284Z,3.92
2022-08-17T10:31:36.284Z,3.03
2022-08-17T10:34:24.657Z,3.30
2022-08-17T10:37:02.467Z,3.67
2022-08-17T10:39:52.408Z,3.40
2022-08-17T10:42:30.519Z,2.97
2022-08-17T10:45:08.007Z,3.45
2022-08-17T10:48:04.718Z,3.55
2022-08-17T10:51:00.656Z,3.03
2022-08-17T10:54:01.572Z,3.10
2022-08-17T10:56:50.770Z,3.05
2022-08-17T10:59:50.713Z,2.97
2022-08-17T11:02:27.947Z,3.08
2022-08-17T11:05:14.959Z,3.13
2022-08-17T11:07:59.766Z,3.42
2022-08-17T11:11:04.443Z,3.20
2022-08-17T11:13:40.971Z,3.42
2022-08-17T11:16:27.841Z,3.28
2022-08-17T11:19:28.392Z,3.17
2022-08-17T11:22:49.675Z,3.47
2022-08-17T11:25:20.740Z,3.72
2022-08-17T11:27:54.036Z,3.33
2022-08-17T11:30:48.723Z,3.28
2022-08-17T11:34:05.992Z,3.50
2022-08-17T11:37:06.223Z,3.78
2022-08-17T11:39:55.626Z,3.40
2022-08-17T11:42:34.370Z,3.50
2022-08-17T11:45:32.390Z,3.50
2022-08-17T11:48:28.174Z,3.70
2022-08-17T11:51:24.522Z,3.53
2022-08-17T11:57:02.180Z,3.38
2022-08-17T11:59:59.567Z,3.65
2022-08-17T12:02:48.184Z,4.00
2022-08-17T12:05:34.313Z,3.30
2022-08-17T12:08:16.013Z,3.50
2022-08-17T12:10:55.292Z,4.05
2022-08-17T12:13:30.519Z,3.58
2022-08-17T12:16:07.415Z,3.33
2022-08-17T12:18:41.685Z,3.53
2022-08-17T12:21:41.956Z,3.05
2022-08-17T12:24:29.256Z,3.05
2022-08-17T12:26:59.646Z,3.50
2022-08-17T12:29:35.152Z,3.60
2022-08-17T12:32:08.730Z,3.42
2022-08-17T12:34:40.986Z,3.17
2022-08-17T12:37:16.685Z,2.58
2022-08-17T12:39:52.434Z,2.72
2022-08-17T12:42:26.384Z,2.80
2022-08-17T12:44:54.437Z,2.97
2022-08-17T12:47:23.312Z,2.50
2022-08-17T12:49:53.833Z,3.08
2022-08-17T12:52:24.985Z,2.78
2022-08-17T12:54:57.108Z,2.47
2022-08-17T12:57:28.043Z,2.65
2022-08-17T13:00:00.242Z,2.42
2022-08-17T13:02:45.217Z,2.67
2022-08-17T13:05:23.605Z,2.28
2022-08-17T13:07:53.093Z,2.20
2022-08-17T13:10:31.664Z,2.45
2022-08-17T13:13:04.741Z,2.35
2022-08-17T13:15:44.493Z,2.40
2022-08-17T13:18:42.748Z,2.60
2022-08-17T13:21:30.446Z,2.40
2022-08-17T13:24:00.818Z,2.22
2022-08-17T13:26:34.535Z,2.75
2022-08-17T13:29:06.331Z,2.65
2022-08-17T13:31:48.316Z,3.00
2022-08-17T13:34:36.937Z,2.40
2022-08-17T13:37:32.681Z,2.70
2022-08-17T13:40:05.672Z,2.78
2022-08-17T13:42:52.600Z,2.53
2022-08-17T13:45:43.428Z,2.95
2022-08-17T13:48:20.751Z,2.70
2022-08-17T13:51:03.651Z,3.00
2022-08-17T13:53:50.785Z,2.92
2022-08-17T13:56:34.972Z,2.70
2022-08-17T13:59:10.164Z,3.08
2022-08-17T14:01:42.894Z,3.10
2022-08-17T14:04:13.842Z,2.95
2022-08-17T14:06:54.060Z,3.20
2022-08-17T14:09:26.624Z,3.25
2022-08-17T14:11:55.940Z,3.20
2022-08-17T14:14:24.428Z,2.95
2022-08-17T14:16:53.185Z,2.80
2022-08-17T14:19:22.130Z,2.88
2022-08-17T14:21:51.560Z,3.55
2022-08-17T14:24:26.327Z,3.10
2022-08-17T14:26:54.673Z,3.20
2022-08-17T14:29:24.769Z,3.25
2022-08-17T14:31:54.579Z,2.92
2022-08-17T14:34:24.618Z,3.10
2022-08-17T14:36:52.973Z,3.25
2022-08-17T14:39:21.572Z,2.83
2022-08-17T14:41:53.280Z,2.78
2022-08-17T14:44:21.203Z,2.90
2022-08-17T14:46:53.933Z,3.42
2022-08-17T14:49:21.850Z,2.85
2022-08-17T14:51:50.220Z,3.13
2022-08-17T14:54:33.422Z,3.58
2022-08-17T14:57:22.764Z,2.70
2022-08-17T14:59:54.838Z,3.22
2022-08-17T15:02:30.158Z,3.10
2022-08-17T15:05:05.048Z,3.40
2022-08-17T15:07:33.644Z,3.30
2022-08-17T15:10:02.440Z,3.17
2022-08-17T15:12:33.687Z,3.65
2022-08-17T15:15:04.789Z,3.28
2022-08-17T15:17:45.020Z,3.35
2022-08-17T15:20:17.140Z,2.97
2022-08-17T15:22:49.329Z,3.58
2022-08-17T15:25:19.034Z,3.20
2022-08-17T15:27:48.424Z,3.42
2022-08-17T15:30:16.474Z,3.63
2022-08-17T15:32:51.282Z,3.22
2022-08-17T15:35:28.296Z,3.28
2022-08-17T15:37:58.233Z,3.33
2022-08-17T15:40:26.666Z,4.00
2022-08-17T15:42:57.852Z,3.20
2022-08-17T15:45:28.240Z,3.20
2022-08-17T15:47:58.032Z,3.22
2022-08-17T15:50:26.491Z,3.28
2022-08-17T15:53:00.032Z,3.70
2022-08-17T15:55:29.981Z,3.10
2022-08-17T15:57:59.869Z,3.75
2022-08-17T16:00:28.504Z,3.40
2022-08-17T16:03:44.451Z,3.67
2022-08-17T16:05:48.897Z,3.15
2022-08-17T16:08:21.088Z,3.40
2022-08-17T16:10:50.132Z,3.42
2022-08-17T16:13:20.098Z,3.45
2022-08-17T16:15:56.702Z,3.30
2022-08-17T16:18:30.885Z,3.28
2022-08-17T16:21:19.681Z,3.47
2022-08-17T16:23:48.589Z,3.35
2022-08-17T16:26:16.806Z,3.40
2022-08-17T16:28:46.332Z,3.50
2022-08-17T16:31:15.614Z,2.90
2022-08-17T16:34:16.162Z,3.45
2022-08-17T16:36:33.817Z,3.78
2022-08-17T16:39:02.294Z,3.47
2022-08-17T16:41:46.072Z,3.22
2022-08-17T16:44:19.512Z,3.30
2022-08-17T16:46:49.087Z,3.33
2022-08-17T16:49:35.466Z,3.17
2022-08-17T16:52:10.929Z,3.97
2022-08-17T16:54:43.316Z,3.42
2022-08-17T16:57:12.559Z,3.17
2022-08-17T16:59:47.774Z,3.30
2022-08-17T17:02:17.183Z,2.92
2022-08-17T17:04:52.575Z,3.03
2022-08-17T17:07:49.583Z,4.43
2022-08-17T17:10:23.616Z,6.72
2022-08-17T17:13:02.090Z,5.03
2022-08-17T17:15:43.370Z,4.47
2022-08-17T17:18:15.324Z,5.88
2022-08-17T17:20:50.212Z,5.25
2022-08-17T17:23:31.190Z,5.05
2022-08-17T17:26:06.587Z,4.85
2022-08-17T17:28:40.472Z,3.90
2022-08-17T17:31:15.427Z,3.45
2022-08-17T17:33:47.361Z,3.50
2022-08-17T17:36:28.480Z,3.65
2022-08-17T17:39:04.270Z,3.50
2022-08-17T17:41:48.132Z,4.35
2022-08-17T17:44:19.817Z,3.60
2022-08-17T17:46:54.335Z,4.30
2022-08-17T17:49:22.611Z,3.83
2022-08-17T17:52:07.874Z,3.38
2022-08-17T17:54:48.630Z,3.70
2022-08-17T17:57:24.919Z,4.50
2022-08-17T17:59:59.484Z,3.55
2022-08-17T18:02:52.078Z,3.55
2022-08-17T18:05:44.390Z,3.47
2022-08-17T18:08:31.880Z,3.60
2022-08-17T18:11:14.813Z,3.90
2022-08-17T18:14:14.391Z,4.10
2022-08-17T18:16:44.468Z,3.95
2022-08-17T18:19:15.966Z,4.22
2022-08-17T18:21:48.224Z,4.18
2022-08-17T18:24:16.544Z,3.65
2022-08-17T18:26:51.196Z,3.72
2022-08-17T18:29:31.464Z,4.30
2022-08-17T18:32:25.353Z,4.07
2022-08-17T18:34:57.453Z,3.80
2022-08-17T18:37:43.695Z,4.85
2022-08-17T18:40:37.526Z,4.03
2022-08-17T18:43:15.123Z,4.32
2022-08-17T18:45:46.988Z,3.83
2022-08-17T18:48:25.765Z,4.22
2022-08-17T18:50:58.211Z,3.88
2022-08-17T18:53:35.550Z,4.03
2022-08-17T18:56:25.785Z,4.15
2022-08-17T18:59:02.340Z,3.85
2022-08-17T19:01:47.583Z,4.18
2022-08-17T19:04:36.512Z,5.10
2022-08-17T19:07:24.183Z,4.00
2022-08-17T19:09:56.393Z,4.53
2022-08-17T19:12:34.264Z,4.43
2022-08-17T19:15:03.350Z,4.43
2022-08-17T19:17:38.575Z,5.10
2022-08-17T19:20:15.176Z,4.20
2022-08-17T19:22:56.429Z,4.38
2022-08-17T19:25:31.524Z,4.13
2022-08-17T19:28:15.336Z,4.72
2022-08-17T19:30:51.130Z,4.95
2022-08-17T19:33:20.079Z,4.82
2022-08-17T19:35:54.459Z,4.72
2022-08-17T19:38:36.507Z,3.95
2022-08-17T19:41:10.615Z,5.18
2022-08-17T19:43:58.818Z,4.57
2022-08-17T19:46:36.107Z,5.00
2022-08-17T19:49:16.602Z,5.22
2022-08-17T19:51:50.543Z,4.55
2022-08-17T19:54:26.995Z,5.18
2022-08-17T19:57:01.676Z,5.25
2022-08-17T19:59:48.804Z,5.38
2022-08-17T20:02:29.096Z,4.20
2022-08-17T20:05:02.895Z,4.78
2022-08-17T20:07:40.480Z,4.97
2022-08-17T20:10:15.541Z,4.30
2022-08-17T20:12:45.890Z,4.20
2022-08-17T20:15:21.303Z,4.38
2022-08-17T20:17:50.453Z,4.07
2022-08-17T20:20:29.742Z,4.03
2022-08-17T20:23:02.265Z,4.80
2022-08-17T20:25:40.415Z,4.93
2022-08-17T20:28:21.211Z,5.13
2022-08-17T20:30:50.972Z,4.47
2022-08-17T20:33:28.298Z,3.97
2022-08-17T20:36:21.970Z,3.75
2022-08-17T20:38:53.316Z,3.97
2022-08-17T20:41:26.134Z,3.97
2022-08-17T20:44:06.180Z,3.75
2022-08-17T20:46:52.085Z,3.58
2022-08-17T20:49:27.932Z,3.88
2022-08-17T20:52:02.628Z,3.47
2022-08-17T20:54:46.139Z,3.20
2022-08-17T20:57:48.556Z,3.22
2022-08-17T21:00:42.358Z,3.90
2022-08-17T21:03:50.423Z,3.90
2022-08-17T21:06:23.171Z,3.30
2022-08-17T21:08:55.366Z,3.30
2022-08-17T21:11:57.114Z,3.75
2022-08-17T21:14:59.685Z,3.70
2022-08-17T21:17:51.403Z,3.28
2022-08-17T21:20:32.258Z,3.53
2022-08-17T21:23:18.629Z,3.85
2022-08-17T21:26:11.103Z,3.63
2022-08-17T21:29:01.429Z,3.65
2022-08-17T21:31:45.269Z,3.35
2022-08-17T21:34:26.631Z,3.45
2022-08-17T21:36:56.782Z,3.63
2022-08-17T21:39:34.176Z,3.15
2022-08-17T21:42:02.709Z,3.88
2022-08-17T21:44:35.490Z,3.88
2022-08-17T21:47:20.156Z,3.85
2022-08-17T21:49:49.015Z,3.55
2022-08-17T21:52:25.338Z,3.75
2022-08-17T21:54:56.584Z,3.75
2022-08-17T21:57:28.182Z,3.92
2022-08-17T21:59:58.599Z,3.35
2022-08-17T22:02:32.872Z,3.53
2022-08-17T22:05:02.909Z,3.58
2022-08-17T22:07:40.969Z,3.83
2022-08-17T22:10:29.248Z,3.88
2022-08-17T22:13:05.817Z,4.00
2022-08-17T22:15:47.654Z,3.85
2022-08-17T22:18:21.071Z,3.97
2022-08-17T22:20:52.042Z,3.92
2022-08-17T22:23:45.145Z,3.20
2022-08-17T22:26:16.011Z,3.30
2022-08-17T22:28:46.907Z,3.25
2022-08-17T22:31:17.243Z,3.50
2022-08-17T22:33:48.943Z,3.72
2022-08-17T22:36:29.578Z,4.13
2022-08-17T22:38:59.689Z,3.67
2022-08-17T22:41:41.971Z,3.78
2022-08-17T22:44:23.121Z,3.60
2022-08-17T22:47:04.626Z,4.32
2022-08-17T22:49:38.802Z,4.70
2022-08-17T22:52:32.824Z,4.22
2022-08-17T22:55:23.311Z,4.00
2022-08-17T22:58:09.807Z,4.18
2022-08-17T23:00:40.604Z,4.00
2022-08-17T23:03:16.238Z,3.97
2022-08-17T23:05:49.032Z,4.10
2022-08-17T23:08:21.290Z,3.60
2022-08-17T23:10:50.207Z,3.58
2022-08-17T23:13:21.660Z,3.55
2022-08-17T23:15:51.919Z,3.60
2022-08-17T23:18:19.932Z,3.50
2022-08-17T23:20:49.302Z,3.67
2022-08-17T23:23:23.369Z,3.67
2022-08-17T23:25:52.108Z,4.00
2022-08-17T23:28:21.632Z,3.50
2022-08-17T23:30:49.597Z,3.55
2022-08-17T23:33:21.245Z,3.30
2022-08-17T23:35:50.720Z,3.90
2022-08-17T23:38:19.411Z,3.53
2022-08-17T23:40:47.406Z,3.42
2022-08-17T23:43:23.937Z,3.60
2022-08-17T23:45:54.838Z,3.90
2022-08-17T23:48:32.740Z,3.65
2022-08-17T23:51:09.501Z,3.90
2022-08-17T23:53:41.813Z,3.88
2022-08-17T23:56:11.825Z,3.63
2022-08-17T23:58:43.225Z,3.88
